sensor_id;sensor_type;location;lat;lon;timestamp;P1;durP1;ratioP1;P2;durP2;ratioP2
9508;SDS011;4792;50.088;8.122;2023-08-24T00:01:08;2.40;;;1.92;;
9508;SDS011;4792;50.088;8.122;2023-08-24T00:03:38;2.75;;;1.88;;
9508;SDS011;4792;50.088;8.122;2023-08-24T00:06:06;2.72;;;2.05;;
9508;SDS011;4792;50.088;8.122;2023-08-24T00:08:33;2.80;;;2.05;;
9508;SDS011;4792;50.088;8.122;2023-08-24T00:11:02;2.58;;;2.13;;
9508;SDS011;4792;50.088;8.122;2023-08-24T00:13:30;3.33;;;2.25;;
9508;SDS011;4792;50.088;8.122;2023-08-24T00:15:58;3.55;;;2.03;;
9508;SDS011;4792;50.088;8.122;2023-08-24T00:18:26;2.45;;;2.17;;
9508;SDS011;4792;50.088;8.122;2023-08-24T00:20:53;2.90;;;2.08;;
9508;SDS011;4792;50.088;8.122;2023-08-24T00:23:21;1.95;;;1.73;;
9508;SDS011;4792;50.088;8.122;2023-08-24T00:25:48;5.30;;;2.45;;
9508;SDS011;4792;50.088;8.122;2023-08-24T00:28:17;3.75;;;2.15;;
9508;SDS011;4792;50.088;8.122;2023-08-24T00:30:45;3.00;;;2.13;;
9508;SDS011;4792;50.088;8.122;2023-08-24T00:33:13;3.80;;;2.28;;
9508;SDS011;4792;50.088;8.122;2023-08-24T00:35:41;2.78;;;2.00;;
9508;SDS011;4792;50.088;8.122;2023-08-24T00:38:08;3.28;;;2.20;;
9508;SDS011;4792;50.088;8.122;2023-08-24T00:40:36;3.50;;;2.17;;
9508;SDS011;4792;50.088;8.122;2023-08-24T00:43:05;4.65;;;2.10;;
9508;SDS011;4792;50.088;8.122;2023-08-24T00:45:34;3.30;;;2.13;;
9508;SDS011;4792;50.088;8.122;2023-08-24T00:48:02;3.22;;;2.17;;
9508;SDS011;4792;50.088;8.122;2023-08-24T00:50:31;2.30;;;1.90;;
9508;SDS011;4792;50.088;8.122;2023-08-24T00:52:59;2.97;;;2.20;;
9508;SDS011;4792;50.088;8.122;2023-08-24T00:55:26;2.55;;;2.03;;
9508;SDS011;4792;50.088;8.122;2023-08-24T00:57:54;3.42;;;2.10;;
9508;SDS011;4792;50.088;8.122;2023-08-24T01:00:22;3.13;;;2.10;;
9508;SDS011;4792;50.088;8.122;2023-08-24T01:02:51;2.40;;;1.98;;
9508;SDS011;4792;50.088;8.122;2023-08-24T01:05:19;2.40;;;2.10;;
9508;SDS011;4792;50.088;8.122;2023-08-24T01:07:47;2.65;;;2.10;;
9508;SDS011;4792;50.088;8.122;2023-08-24T01:10:15;2.78;;;2.20;;
9508;SDS011;4792;50.088;8.122;2023-08-24T01:12:48;2.30;;;1.75;;
9508;SDS011;4792;50.088;8.122;2023-08-24T01:15:21;2.88;;;2.35;;
9508;SDS011;4792;50.088;8.122;2023-08-24T01:17:53;3.72;;;2.25;;
9508;SDS011;4792;50.088;8.122;2023-08-24T01:20:26;3.47;;;2.15;;
9508;SDS011;4792;50.088;8.122;2023-08-24T01:22:55;3.33;;;2.10;;
9508;SDS011;4792;50.088;8.122;2023-08-24T01:25:30;4.63;;;2.28;;
9508;SDS011;4792;50.088;8.122;2023-08-24T01:28:03;3.67;;;2.42;;
9508;SDS011;4792;50.088;8.122;2023-08-24T01:30:32;5.03;;;2.30;;
9508;SDS011;4792;50.088;8.122;2023-08-24T01:33:02;2.53;;;1.70;;
9508;SDS011;4792;50.088;8.122;2023-08-24T01:35:30;5.38;;;2.33;;
9508;SDS011;4792;50.088;8.122;2023-08-24T01:37:57;4.30;;;2.50;;
9508;SDS011;4792;50.088;8.122;2023-08-24T01:40:31;3.92;;;2.22;;
9508;SDS011;4792;50.088;8.122;2023-08-24T01:43:07;2.70;;;2.20;;
9508;SDS011;4792;50.088;8.122;2023-08-24T01:45:35;3.22;;;2.08;;
9508;SDS011;4792;50.088;8.122;2023-08-24T01:48:03;3.13;;;2.00;;
9508;SDS011;4792;50.088;8.122;2023-08-24T01:50:31;3.45;;;2.25;;
9508;SDS011;4792;50.088;8.122;2023-08-24T01:53:00;3.30;;;1.85;;
9508;SDS011;4792;50.088;8.122;2023-08-24T01:55:28;2.20;;;1.77;;
9508;SDS011;4792;50.088;8.122;2023-08-24T01:57:56;2.90;;;2.10;;
9508;SDS011;4792;50.088;8.122;2023-08-24T02:00:25;3.65;;;2.10;;
9508;SDS011;4792;50.088;8.122;2023-08-24T02:02:53;3.05;;;2.22;;
9508;SDS011;4792;50.088;8.122;2023-08-24T02:05:20;2.80;;;2.15;;
9508;SDS011;4792;50.088;8.122;2023-08-24T02:07:50;2.97;;;2.03;;
9508;SDS011;4792;50.088;8.122;2023-08-24T02:10:20;3.30;;;2.05;;
9508;SDS011;4792;50.088;8.122;2023-08-24T02:12:48;4.53;;;2.03;;
9508;SDS011;4792;50.088;8.122;2023-08-24T02:15:15;3.30;;;2.10;;
9508;SDS011;4792;50.088;8.122;2023-08-24T02:17:44;3.58;;;2.30;;
9508;SDS011;4792;50.088;8.122;2023-08-24T02:20:12;2.30;;;1.83;;
9508;SDS011;4792;50.088;8.122;2023-08-24T02:22:40;3.90;;;2.10;;
9508;SDS011;4792;50.088;8.122;2023-08-24T02:25:09;2.63;;;2.08;;
9508;SDS011;4792;50.088;8.122;2023-08-24T02:27:36;2.63;;;2.08;;
9508;SDS011;4792;50.088;8.122;2023-08-24T02:30:05;2.85;;;2.30;;
9508;SDS011;4792;50.088;8.122;2023-08-24T02:32:36;3.47;;;2.05;;
9508;SDS011;4792;50.088;8.122;2023-08-24T02:35:05;2.58;;;2.15;;
9508;SDS011;4792;50.088;8.122;2023-08-24T02:37:34;2.50;;;1.90;;
9508;SDS011;4792;50.088;8.122;2023-08-24T02:40:02;3.00;;;2.00;;
9508;SDS011;4792;50.088;8.122;2023-08-24T02:42:30;4.32;;;2.00;;
9508;SDS011;4792;50.088;8.122;2023-08-24T02:44:58;3.80;;;2.10;;
9508;SDS011;4792;50.088;8.122;2023-08-24T02:47:25;3.33;;;1.95;;
9508;SDS011;4792;50.088;8.122;2023-08-24T02:49:53;5.45;;;1.88;;
9508;SDS011;4792;50.088;8.122;2023-08-24T02:52:22;4.50;;;2.80;;
9508;SDS011;4792;50.088;8.122;2023-08-24T02:54:50;6.13;;;1.77;;
9508;SDS011;4792;50.088;8.122;2023-08-24T02:57:17;3.50;;;2.08;;
9508;SDS011;4792;50.088;8.122;2023-08-24T02:59:45;2.78;;;1.80;;
9508;SDS011;4792;50.088;8.122;2023-08-24T03:02:12;1.90;;;1.70;;
9508;SDS011;4792;50.088;8.122;2023-08-24T03:04:40;4.05;;;1.80;;
9508;SDS011;4792;50.088;8.122;2023-08-24T03:07:08;2.75;;;2.15;;
9508;SDS011;4792;50.088;8.122;2023-08-24T03:09:38;2.45;;;1.83;;
9508;SDS011;4792;50.088;8.122;2023-08-24T03:12:08;2.72;;;1.90;;
9508;SDS011;4792;50.088;8.122;2023-08-24T03:14:36;4.25;;;2.03;;
9508;SDS011;4792;50.088;8.122;2023-08-24T03:17:03;6.22;;;2.38;;
9508;SDS011;4792;50.088;8.122;2023-08-24T03:19:31;2.20;;;2.00;;
9508;SDS011;4792;50.088;8.122;2023-08-24T03:21:59;3.65;;;2.33;;
9508;SDS011;4792;50.088;8.122;2023-08-24T03:24:27;3.72;;;2.50;;
9508;SDS011;4792;50.088;8.122;2023-08-24T03:26:56;2.95;;;2.00;;
9508;SDS011;4792;50.088;8.122;2023-08-24T03:29:23;5.00;;;2.42;;
9508;SDS011;4792;50.088;8.122;2023-08-24T03:31:51;6.53;;;2.65;;
9508;SDS011;4792;50.088;8.122;2023-08-24T03:34:19;3.00;;;2.10;;
9508;SDS011;4792;50.088;8.122;2023-08-24T03:36:47;2.95;;;2.30;;
9508;SDS011;4792;50.088;8.122;2023-08-24T03:39:15;2.72;;;2.40;;
9508;SDS011;4792;50.088;8.122;2023-08-24T03:41:43;5.90;;;2.78;;
9508;SDS011;4792;50.088;8.122;2023-08-24T03:44:12;5.53;;;2.75;;
9508;SDS011;4792;50.088;8.122;2023-08-24T03:46:39;4.38;;;3.00;;
9508;SDS011;4792;50.088;8.122;2023-08-24T03:49:06;3.58;;;2.80;;
9508;SDS011;4792;50.088;8.122;2023-08-24T03:51:34;4.65;;;2.95;;
9508;SDS011;4792;50.088;8.122;2023-08-24T03:54:02;7.22;;;2.97;;
9508;SDS011;4792;50.088;8.122;2023-08-24T03:56:33;5.28;;;3.25;;
9508;SDS011;4792;50.088;8.122;2023-08-24T03:59:00;5.07;;;3.17;;
9508;SDS011;4792;50.088;8.122;2023-08-24T04:01:29;5.45;;;3.00;;
9508;SDS011;4792;50.088;8.122;2023-08-24T04:03:57;5.00;;;3.17;;
9508;SDS011;4792;50.088;8.122;2023-08-24T04:06:27;4.57;;;3.33;;
9508;SDS011;4792;50.088;8.122;2023-08-24T04:08:54;7.38;;;3.63;;
9508;SDS011;4792;50.088;8.122;2023-08-24T04:11:22;4.90;;;3.33;;
9508;SDS011;4792;50.088;8.122;2023-08-24T04:13:50;3.72;;;2.92;;
9508;SDS011;4792;50.088;8.122;2023-08-24T04:16:18;6.65;;;3.20;;
9508;SDS011;4792;50.088;8.122;2023-08-24T04:18:47;7.80;;;3.53;;
9508;SDS011;4792;50.088;8.122;2023-08-24T04:21:14;3.75;;;3.35;;
9508;SDS011;4792;50.088;8.122;2023-08-24T04:23:42;5.00;;;3.30;;
9508;SDS011;4792;50.088;8.122;2023-08-24T04:26:11;6.05;;;3.55;;
9508;SDS011;4792;50.088;8.122;2023-08-24T04:28:39;5.35;;;3.33;;
9508;SDS011;4792;50.088;8.122;2023-08-24T04:31:07;4.28;;;3.28;;
9508;SDS011;4792;50.088;8.122;2023-08-24T04:33:35;3.95;;;3.33;;
9508;SDS011;4792;50.088;8.122;2023-08-24T04:36:04;4.38;;;3.28;;
9508;SDS011;4792;50.088;8.122;2023-08-24T04:38:33;4.90;;;3.05;;
9508;SDS011;4792;50.088;8.122;2023-08-24T04:41:00;5.22;;;3.22;;
9508;SDS011;4792;50.088;8.122;2023-08-24T04:43:33;4.82;;;3.17;;
9508;SDS011;4792;50.088;8.122;2023-08-24T04:46:02;4.00;;;3.30;;
9508;SDS011;4792;50.088;8.122;2023-08-24T04:48:30;3.55;;;2.83;;
9508;SDS011;4792;50.088;8.122;2023-08-24T04:51:01;3.80;;;3.13;;
9508;SDS011;4792;50.088;8.122;2023-08-24T04:53:30;5.00;;;3.10;;
9508;SDS011;4792;50.088;8.122;2023-08-24T04:55:58;4.88;;;3.22;;
9508;SDS011;4792;50.088;8.122;2023-08-24T04:58:25;5.85;;;2.72;;
9508;SDS011;4792;50.088;8.122;2023-08-24T05:00:53;7.28;;;3.47;;
9508;SDS011;4792;50.088;8.122;2023-08-24T05:03:21;2.92;;;2.42;;
9508;SDS011;4792;50.088;8.122;2023-08-24T05:05:49;3.88;;;2.95;;
9508;SDS011;4792;50.088;8.122;2023-08-24T05:08:17;3.30;;;2.97;;
9508;SDS011;4792;50.088;8.122;2023-08-24T05:10:46;3.50;;;2.70;;
9508;SDS011;4792;50.088;8.122;2023-08-24T05:13:13;4.05;;;3.20;;
9508;SDS011;4792;50.088;8.122;2023-08-24T05:15:41;3.42;;;2.80;;
9508;SDS011;4792;50.088;8.122;2023-08-24T05:18:08;5.03;;;3.00;;
9508;SDS011;4792;50.088;8.122;2023-08-24T05:20:36;3.00;;;2.70;;
9508;SDS011;4792;50.088;8.122;2023-08-24T05:23:04;6.43;;;3.80;;
9508;SDS011;4792;50.088;8.122;2023-08-24T05:25:31;7.93;;;4.07;;
9508;SDS011;4792;50.088;8.122;2023-08-24T05:28:02;5.72;;;4.05;;
9508;SDS011;4792;50.088;8.122;2023-08-24T05:30:30;6.38;;;4.50;;
9508;SDS011;4792;50.088;8.122;2023-08-24T05:32:58;7.38;;;4.60;;
9508;SDS011;4792;50.088;8.122;2023-08-24T05:35:26;8.18;;;4.22;;
9508;SDS011;4792;50.088;8.122;2023-08-24T05:37:53;7.22;;;4.15;;
9508;SDS011;4792;50.088;8.122;2023-08-24T05:40:21;6.65;;;4.15;;
9508;SDS011;4792;50.088;8.122;2023-08-24T05:42:49;7.47;;;4.38;;
9508;SDS011;4792;50.088;8.122;2023-08-24T05:45:18;4.65;;;3.42;;
9508;SDS011;4792;50.088;8.122;2023-08-24T05:47:45;10.52;;;4.65;;
9508;SDS011;4792;50.088;8.122;2023-08-24T05:50:13;5.80;;;4.30;;
9508;SDS011;4792;50.088;8.122;2023-08-24T05:52:41;6.18;;;4.30;;
9508;SDS011;4792;50.088;8.122;2023-08-24T05:55:09;4.63;;;3.75;;
9508;SDS011;4792;50.088;8.122;2023-08-24T05:57:36;5.22;;;4.05;;
9508;SDS011;4792;50.088;8.122;2023-08-24T06:00:04;5.57;;;3.67;;
9508;SDS011;4792;50.088;8.122;2023-08-24T06:02:38;5.68;;;3.78;;
9508;SDS011;4792;50.088;8.122;2023-08-24T06:05:07;7.90;;;3.63;;
9508;SDS011;4792;50.088;8.122;2023-08-24T06:07:35;5.45;;;3.70;;
9508;SDS011;4792;50.088;8.122;2023-08-24T06:10:03;6.55;;;3.50;;
9508;SDS011;4792;50.088;8.122;2023-08-24T06:12:32;5.07;;;3.58;;
9508;SDS011;4792;50.088;8.122;2023-08-24T06:14:59;4.70;;;4.20;;
9508;SDS011;4792;50.088;8.122;2023-08-24T06:17:30;6.22;;;3.72;;
9508;SDS011;4792;50.088;8.122;2023-08-24T06:19:59;5.95;;;4.30;;
9508;SDS011;4792;50.088;8.122;2023-08-24T06:22:27;4.90;;;3.92;;
9508;SDS011;4792;50.088;8.122;2023-08-24T06:24:55;4.32;;;3.65;;
9508;SDS011;4792;50.088;8.122;2023-08-24T06:27:25;5.72;;;3.40;;
9508;SDS011;4792;50.088;8.122;2023-08-24T06:29:53;5.10;;;3.78;;
9508;SDS011;4792;50.088;8.122;2023-08-24T06:32:21;5.82;;;3.17;;
9508;SDS011;4792;50.088;8.122;2023-08-24T06:34:48;5.25;;;3.30;;
9508;SDS011;4792;50.088;8.122;2023-08-24T06:37:17;6.25;;;3.30;;
9508;SDS011;4792;50.088;8.122;2023-08-24T06:39:45;5.43;;;3.05;;
9508;SDS011;4792;50.088;8.122;2023-08-24T06:42:13;3.45;;;3.13;;
9508;SDS011;4792;50.088;8.122;2023-08-24T06:44:40;3.42;;;2.95;;
9508;SDS011;4792;50.088;8.122;2023-08-24T06:47:08;6.40;;;3.25;;
9508;SDS011;4792;50.088;8.122;2023-08-24T06:49:35;5.53;;;2.80;;
9508;SDS011;4792;50.088;8.122;2023-08-24T06:52:06;4.30;;;2.70;;
9508;SDS011;4792;50.088;8.122;2023-08-24T06:54:36;3.38;;;3.00;;
9508;SDS011;4792;50.088;8.122;2023-08-24T06:57:03;4.70;;;2.88;;
9508;SDS011;4792;50.088;8.122;2023-08-24T06:59:31;3.53;;;3.08;;
9508;SDS011;4792;50.088;8.122;2023-08-24T07:01:59;5.25;;;2.72;;
9508;SDS011;4792;50.088;8.122;2023-08-24T07:04:27;4.68;;;2.80;;
9508;SDS011;4792;50.088;8.122;2023-08-24T07:06:56;3.95;;;2.72;;
9508;SDS011;4792;50.088;8.122;2023-08-24T07:09:23;4.85;;;2.88;;
9508;SDS011;4792;50.088;8.122;2023-08-24T07:11:52;5.20;;;2.60;;
9508;SDS011;4792;50.088;8.122;2023-08-24T07:14:20;3.47;;;2.60;;
9508;SDS011;4792;50.088;8.122;2023-08-24T07:16:48;4.90;;;2.67;;
9508;SDS011;4792;50.088;8.122;2023-08-24T07:19:15;6.63;;;3.20;;
9508;SDS011;4792;50.088;8.122;2023-08-24T07:21:43;3.13;;;2.60;;
9508;SDS011;4792;50.088;8.122;2023-08-24T07:24:11;4.10;;;3.00;;
9508;SDS011;4792;50.088;8.122;2023-08-24T07:26:40;3.97;;;2.80;;
9508;SDS011;4792;50.088;8.122;2023-08-24T07:29:09;3.25;;;2.72;;
9508;SDS011;4792;50.088;8.122;2023-08-24T07:31:37;6.72;;;3.83;;
9508;SDS011;4792;50.088;8.122;2023-08-24T07:34:05;5.55;;;3.70;;
9508;SDS011;4792;50.088;8.122;2023-08-24T07:36:32;4.72;;;3.50;;
9508;SDS011;4792;50.088;8.122;2023-08-24T07:39:00;4.22;;;3.63;;
9508;SDS011;4792;50.088;8.122;2023-08-24T07:41:30;5.55;;;3.40;;
9508;SDS011;4792;50.088;8.122;2023-08-24T07:43:58;4.90;;;4.05;;
9508;SDS011;4792;50.088;8.122;2023-08-24T07:46:27;6.40;;;3.50;;
9508;SDS011;4792;50.088;8.122;2023-08-24T07:48:55;5.53;;;3.80;;
9508;SDS011;4792;50.088;8.122;2023-08-24T07:51:23;7.25;;;3.45;;
9508;SDS011;4792;50.088;8.122;2023-08-24T07:53:51;4.75;;;4.07;;
9508;SDS011;4792;50.088;8.122;2023-08-24T07:56:19;4.90;;;3.47;;
9508;SDS011;4792;50.088;8.122;2023-08-24T07:58:46;5.73;;;3.77;;
9508;SDS011;4792;50.088;8.122;2023-08-24T08:01:14;5.13;;;3.67;;
9508;SDS011;4792;50.088;8.122;2023-08-24T08:03:43;4.80;;;3.33;;
9508;SDS011;4792;50.088;8.122;2023-08-24T08:06:10;4.28;;;3.45;;
9508;SDS011;4792;50.088;8.122;2023-08-24T08:08:39;5.70;;;3.27;;
9508;SDS011;4792;50.088;8.122;2023-08-24T08:11:07;7.90;;;3.20;;
9508;SDS011;4792;50.088;8.122;2023-08-24T08:13:35;4.93;;;3.15;;
9508;SDS011;4792;50.088;8.122;2023-08-24T08:16:02;6.20;;;3.53;;
9508;SDS011;4792;50.088;8.122;2023-08-24T08:18:30;4.30;;;3.30;;
9508;SDS011;4792;50.088;8.122;2023-08-24T08:21:00;3.93;;;3.37;;
9508;SDS011;4792;50.088;8.122;2023-08-24T08:23:28;3.88;;;3.30;;
9508;SDS011;4792;50.088;8.122;2023-08-24T08:25:56;4.68;;;3.25;;
9508;SDS011;4792;50.088;8.122;2023-08-24T08:28:23;4.43;;;3.45;;
9508;SDS011;4792;50.088;8.122;2023-08-24T08:30:51;4.85;;;3.63;;
9508;SDS011;4792;50.088;8.122;2023-08-24T08:33:19;6.10;;;3.20;;
9508;SDS011;4792;50.088;8.122;2023-08-24T08:35:48;5.40;;;3.22;;
9508;SDS011;4792;50.088;8.122;2023-08-24T08:38:17;4.25;;;3.20;;
9508;SDS011;4792;50.088;8.122;2023-08-24T08:40:45;5.38;;;3.53;;
9508;SDS011;4792;50.088;8.122;2023-08-24T08:43:13;7.95;;;3.38;;
9508;SDS011;4792;50.088;8.122;2023-08-24T08:45:41;3.78;;;3.00;;
9508;SDS011;4792;50.088;8.122;2023-08-24T08:48:09;6.25;;;3.40;;
9508;SDS011;4792;50.088;8.122;2023-08-24T08:50:38;4.72;;;3.53;;
9508;SDS011;4792;50.088;8.122;2023-08-24T08:53:06;4.60;;;3.35;;
9508;SDS011;4792;50.088;8.122;2023-08-24T08:55:35;5.53;;;3.20;;
9508;SDS011;4792;50.088;8.122;2023-08-24T08:58:03;4.25;;;3.05;;
9508;SDS011;4792;50.088;8.122;2023-08-24T09:00:31;5.63;;;2.95;;
9508;SDS011;4792;50.088;8.122;2023-08-24T09:02:59;3.97;;;2.85;;
9508;SDS011;4792;50.088;8.122;2023-08-24T09:05:27;6.03;;;3.08;;
9508;SDS011;4792;50.088;8.122;2023-08-24T09:07:54;3.17;;;2.53;;
9508;SDS011;4792;50.088;8.122;2023-08-24T09:10:22;3.22;;;2.70;;
9508;SDS011;4792;50.088;8.122;2023-08-24T09:12:51;4.13;;;3.03;;
9508;SDS011;4792;50.088;8.122;2023-08-24T09:15:31;4.90;;;2.85;;
9508;SDS011;4792;50.088;8.122;2023-08-24T09:18:02;4.05;;;2.30;;
9508;SDS011;4792;50.088;8.122;2023-08-24T09:20:30;4.43;;;2.70;;
9508;SDS011;4792;50.088;8.122;2023-08-24T09:22:58;4.38;;;2.67;;
9508;SDS011;4792;50.088;8.122;2023-08-24T09:25:26;5.20;;;2.88;;
9508;SDS011;4792;50.088;8.122;2023-08-24T09:27:58;5.25;;;2.95;;
9508;SDS011;4792;50.088;8.122;2023-08-24T09:30:29;3.80;;;2.70;;
9508;SDS011;4792;50.088;8.122;2023-08-24T09:33:01;4.53;;;2.65;;
9508;SDS011;4792;50.088;8.122;2023-08-24T09:35:33;4.82;;;2.60;;
9508;SDS011;4792;50.088;8.122;2023-08-24T09:38:15;3.78;;;2.75;;
9508;SDS011;4792;50.088;8.122;2023-08-24T09:40:44;2.60;;;2.25;;
9508;SDS011;4792;50.088;8.122;2023-08-24T09:43:15;4.07;;;2.40;;
9508;SDS011;4792;50.088;8.122;2023-08-24T09:45:49;3.83;;;2.65;;
9508;SDS011;4792;50.088;8.122;2023-08-24T09:48:18;3.28;;;2.45;;
9508;SDS011;4792;50.088;8.122;2023-08-24T09:50:46;4.70;;;2.40;;
9508;SDS011;4792;50.088;8.122;2023-08-24T09:53:16;6.57;;;2.72;;
9508;SDS011;4792;50.088;8.122;2023-08-24T09:55:48;3.63;;;2.67;;
9508;SDS011;4792;50.088;8.122;2023-08-24T09:58:18;5.95;;;2.65;;
9508;SDS011;4792;50.088;8.122;2023-08-24T10:00:46;4.90;;;2.67;;
9508;SDS011;4792;50.088;8.122;2023-08-24T10:03:15;3.15;;;2.50;;
9508;SDS011;4792;50.088;8.122;2023-08-24T10:05:50;5.40;;;2.58;;
9508;SDS011;4792;50.088;8.122;2023-08-24T10:08:26;5.22;;;2.45;;
9508;SDS011;4792;50.088;8.122;2023-08-24T10:10:55;3.55;;;2.28;;
9508;SDS011;4792;50.088;8.122;2023-08-24T10:13:29;4.43;;;2.70;;
9508;SDS011;4792;50.088;8.122;2023-08-24T10:16:01;3.80;;;2.40;;
9508;SDS011;4792;50.088;8.122;2023-08-24T10:18:31;4.68;;;2.75;;
9508;SDS011;4792;50.088;8.122;2023-08-24T10:20:58;3.97;;;2.70;;
9508;SDS011;4792;50.088;8.122;2023-08-24T10:23:27;3.85;;;2.53;;
9508;SDS011;4792;50.088;8.122;2023-08-24T10:25:56;4.20;;;2.45;;
9508;SDS011;4792;50.088;8.122;2023-08-24T10:28:25;4.40;;;2.70;;
9508;SDS011;4792;50.088;8.122;2023-08-24T10:30:55;4.57;;;2.65;;
9508;SDS011;4792;50.088;8.122;2023-08-24T10:33:25;3.53;;;2.58;;
9508;SDS011;4792;50.088;8.122;2023-08-24T10:35:53;5.80;;;2.60;;
9508;SDS011;4792;50.088;8.122;2023-08-24T10:38:24;7.03;;;2.47;;
9508;SDS011;4792;50.088;8.122;2023-08-24T10:40:53;4.53;;;2.50;;
9508;SDS011;4792;50.088;8.122;2023-08-24T10:43:21;6.88;;;2.97;;
9508;SDS011;4792;50.088;8.122;2023-08-24T10:45:58;3.95;;;2.55;;
9508;SDS011;4792;50.088;8.122;2023-08-24T10:48:27;4.63;;;2.72;;
9508;SDS011;4792;50.088;8.122;2023-08-24T10:53:47;5.55;;;2.63;;
9508;SDS011;4792;50.088;8.122;2023-08-24T10:56:18;4.57;;;3.15;;
9508;SDS011;4792;50.088;8.122;2023-08-24T10:58:47;6.20;;;3.10;;
9508;SDS011;4792;50.088;8.122;2023-08-24T11:01:42;4.60;;;2.83;;
9508;SDS011;4792;50.088;8.122;2023-08-24T11:04:10;6.65;;;2.70;;
9508;SDS011;4792;50.088;8.122;2023-08-24T11:06:52;3.70;;;2.80;;
9508;SDS011;4792;50.088;8.122;2023-08-24T11:09:21;5.18;;;2.90;;
9508;SDS011;4792;50.088;8.122;2023-08-24T11:11:56;4.20;;;3.13;;
9508;SDS011;4792;50.088;8.122;2023-08-24T11:14:25;6.15;;;2.92;;
9508;SDS011;4792;50.088;8.122;2023-08-24T11:16:55;4.13;;;2.97;;
9508;SDS011;4792;50.088;8.122;2023-08-24T11:19:24;7.25;;;3.17;;
9508;SDS011;4792;50.088;8.122;2023-08-24T11:21:52;6.03;;;3.60;;
9508;SDS011;4792;50.088;8.122;2023-08-24T11:24:20;4.93;;;3.20;;
9508;SDS011;4792;50.088;8.122;2023-08-24T11:26:48;4.80;;;2.80;;
9508;SDS011;4792;50.088;8.122;2023-08-24T11:29:18;5.85;;;3.20;;
9508;SDS011;4792;50.088;8.122;2023-08-24T11:31:45;8.38;;;3.45;;
9508;SDS011;4792;50.088;8.122;2023-08-24T11:34:15;6.45;;;3.25;;
9508;SDS011;4792;50.088;8.122;2023-08-24T11:36:43;5.15;;;3.00;;
9508;SDS011;4792;50.088;8.122;2023-08-24T11:39:16;4.65;;;2.85;;
9508;SDS011;4792;50.088;8.122;2023-08-24T11:41:56;6.88;;;3.40;;
9508;SDS011;4792;50.088;8.122;2023-08-24T11:44:24;6.32;;;3.05;;
9508;SDS011;4792;50.088;8.122;2023-08-24T11:46:55;8.35;;;3.45;;
9508;SDS011;4792;50.088;8.122;2023-08-24T11:49:25;4.80;;;2.92;;
9508;SDS011;4792;50.088;8.122;2023-08-24T11:51:52;5.32;;;3.40;;
9508;SDS011;4792;50.088;8.122;2023-08-24T11:54:20;5.13;;;3.35;;
9508;SDS011;4792;50.088;8.122;2023-08-24T11:56:48;4.07;;;2.80;;
9508;SDS011;4792;50.088;8.122;2023-08-24T11:59:16;4.68;;;3.03;;
9508;SDS011;4792;50.088;8.122;2023-08-24T12:01:44;6.10;;;2.92;;
9508;SDS011;4792;50.088;8.122;2023-08-24T12:04:12;9.30;;;3.08;;
9508;SDS011;4792;50.088;8.122;2023-08-24T12:06:42;5.80;;;3.05;;
9508;SDS011;4792;50.088;8.122;2023-08-24T12:09:10;5.95;;;3.35;;
9508;SDS011;4792;50.088;8.122;2023-08-24T12:11:37;5.45;;;3.30;;
9508;SDS011;4792;50.088;8.122;2023-08-24T12:14:06;9.73;;;3.78;;
9508;SDS011;4792;50.088;8.122;2023-08-24T12:16:36;11.35;;;3.53;;
9508;SDS011;4792;50.088;8.122;2023-08-24T12:19:07;4.45;;;2.90;;
9508;SDS011;4792;50.088;8.122;2023-08-24T12:21:36;5.03;;;3.20;;
9508;SDS011;4792;50.088;8.122;2023-08-24T12:24:05;5.35;;;3.30;;
9508;SDS011;4792;50.088;8.122;2023-08-24T12:26:35;6.35;;;3.22;;
9508;SDS011;4792;50.088;8.122;2023-08-24T12:29:03;5.00;;;2.95;;
9508;SDS011;4792;50.088;8.122;2023-08-24T12:31:32;7.63;;;3.20;;
9508;SDS011;4792;50.088;8.122;2023-08-24T12:34:01;7.05;;;2.97;;
9508;SDS011;4792;50.088;8.122;2023-08-24T12:36:31;5.30;;;2.75;;
9508;SDS011;4792;50.088;8.122;2023-08-24T12:38:59;5.55;;;2.85;;
9508;SDS011;4792;50.088;8.122;2023-08-24T12:41:28;6.82;;;3.10;;
9508;SDS011;4792;50.088;8.122;2023-08-24T12:43:55;5.93;;;3.33;;
9508;SDS011;4792;50.088;8.122;2023-08-24T12:46:23;3.58;;;3.28;;
9508;SDS011;4792;50.088;8.122;2023-08-24T12:48:51;11.45;;;3.20;;
9508;SDS011;4792;50.088;8.122;2023-08-24T12:51:22;4.53;;;3.40;;
9508;SDS011;4792;50.088;8.122;2023-08-24T12:53:50;4.65;;;3.00;;
9508;SDS011;4792;50.088;8.122;2023-08-24T12:56:18;3.88;;;2.88;;
9508;SDS011;4792;50.088;8.122;2023-08-24T12:58:47;7.85;;;3.38;;
9508;SDS011;4792;50.088;8.122;2023-08-24T13:01:14;5.38;;;3.38;;
9508;SDS011;4792;50.088;8.122;2023-08-24T13:03:43;3.95;;;3.25;;
9508;SDS011;4792;50.088;8.122;2023-08-24T13:06:11;5.03;;;3.13;;
9508;SDS011;4792;50.088;8.122;2023-08-24T13:08:50;6.50;;;3.22;;
9508;SDS011;4792;50.088;8.122;2023-08-24T13:11:17;5.70;;;3.30;;
9508;SDS011;4792;50.088;8.122;2023-08-24T13:13:46;6.60;;;3.63;;
9508;SDS011;4792;50.088;8.122;2023-08-24T13:16:14;6.53;;;3.33;;
9508;SDS011;4792;50.088;8.122;2023-08-24T13:18:42;5.40;;;3.40;;
9508;SDS011;4792;50.088;8.122;2023-08-24T13:21:10;4.63;;;3.13;;
9508;SDS011;4792;50.088;8.122;2023-08-24T13:23:37;5.40;;;3.40;;
9508;SDS011;4792;50.088;8.122;2023-08-24T13:26:05;4.85;;;3.20;;
9508;SDS011;4792;50.088;8.122;2023-08-24T13:28:32;6.63;;;3.33;;
9508;SDS011;4792;50.088;8.122;2023-08-24T13:31:02;5.32;;;3.38;;
9508;SDS011;4792;50.088;8.122;2023-08-24T13:33:30;5.18;;;3.35;;
9508;SDS011;4792;50.088;8.122;2023-08-24T13:35:57;4.38;;;3.15;;
9508;SDS011;4792;50.088;8.122;2023-08-24T13:38:25;5.35;;;3.20;;
9508;SDS011;4792;50.088;8.122;2023-08-24T13:40:52;6.28;;;3.40;;
9508;SDS011;4792;50.088;8.122;2023-08-24T13:43:20;4.90;;;3.30;;
9508;SDS011;4792;50.088;8.122;2023-08-24T13:45:48;6.82;;;3.25;;
9508;SDS011;4792;50.088;8.122;2023-08-24T13:48:19;6.18;;;3.50;;
9508;SDS011;4792;50.088;8.122;2023-08-24T13:50:49;5.07;;;3.47;;
9508;SDS011;4792;50.088;8.122;2023-08-24T13:53:17;4.28;;;3.40;;
9508;SDS011;4792;50.088;8.122;2023-08-24T13:55:45;5.90;;;3.30;;
9508;SDS011;4792;50.088;8.122;2023-08-24T13:58:13;4.57;;;2.97;;
9508;SDS011;4792;50.088;8.122;2023-08-24T14:00:40;8.85;;;3.63;;
9508;SDS011;4792;50.088;8.122;2023-08-24T14:03:08;4.70;;;3.42;;
9508;SDS011;4792;50.088;8.122;2023-08-24T14:05:39;6.68;;;3.47;;
9508;SDS011;4792;50.088;8.122;2023-08-24T14:08:08;9.18;;;3.33;;
9508;SDS011;4792;50.088;8.122;2023-08-24T14:10:35;11.25;;;3.40;;
9508;SDS011;4792;50.088;8.122;2023-08-24T14:13:03;4.32;;;3.30;;
9508;SDS011;4792;50.088;8.122;2023-08-24T14:15:31;10.18;;;3.53;;
9508;SDS011;4792;50.088;8.122;2023-08-24T14:17:58;6.68;;;3.63;;
9508;SDS011;4792;50.088;8.122;2023-08-24T14:20:26;4.85;;;3.55;;
9508;SDS011;4792;50.088;8.122;2023-08-24T14:22:55;7.13;;;3.72;;
9508;SDS011;4792;50.088;8.122;2023-08-24T14:25:23;4.78;;;3.50;;
9508;SDS011;4792;50.088;8.122;2023-08-24T14:27:50;7.65;;;3.38;;
9508;SDS011;4792;50.088;8.122;2023-08-24T14:30:30;5.60;;;3.75;;
9508;SDS011;4792;50.088;8.122;2023-08-24T14:32:58;7.65;;;3.72;;
9508;SDS011;4792;50.088;8.122;2023-08-24T14:35:25;7.95;;;3.70;;
9508;SDS011;4792;50.088;8.122;2023-08-24T14:37:55;5.45;;;3.58;;
9508;SDS011;4792;50.088;8.122;2023-08-24T14:40:23;10.68;;;3.95;;
9508;SDS011;4792;50.088;8.122;2023-08-24T14:42:51;5.22;;;3.50;;
9508;SDS011;4792;50.088;8.122;2023-08-24T14:45:19;5.68;;;3.85;;
9508;SDS011;4792;50.088;8.122;2023-08-24T14:47:47;6.13;;;3.80;;
9508;SDS011;4792;50.088;8.122;2023-08-24T14:50:15;4.88;;;3.55;;
9508;SDS011;4792;50.088;8.122;2023-08-24T14:52:43;6.07;;;3.50;;
9508;SDS011;4792;50.088;8.122;2023-08-24T14:55:12;8.23;;;3.67;;
9508;SDS011;4792;50.088;8.122;2023-08-24T14:57:39;6.50;;;3.78;;
9508;SDS011;4792;50.088;8.122;2023-08-24T15:00:08;6.88;;;3.55;;
9508;SDS011;4792;50.088;8.122;2023-08-24T15:02:36;4.68;;;3.60;;
9508;SDS011;4792;50.088;8.122;2023-08-24T15:05:04;4.50;;;3.72;;
9508;SDS011;4792;50.088;8.122;2023-08-24T15:07:32;5.57;;;3.58;;
9508;SDS011;4792;50.088;8.122;2023-08-24T15:10:00;5.90;;;3.97;;
9508;SDS011;4792;50.088;8.122;2023-08-24T15:12:31;4.65;;;3.92;;
9508;SDS011;4792;50.088;8.122;2023-08-24T15:14:59;5.95;;;4.13;;
9508;SDS011;4792;50.088;8.122;2023-08-24T15:17:28;5.03;;;3.80;;
9508;SDS011;4792;50.088;8.122;2023-08-24T15:19:57;9.10;;;3.90;;
9508;SDS011;4792;50.088;8.122;2023-08-24T15:22:24;5.05;;;3.85;;
9508;SDS011;4792;50.088;8.122;2023-08-24T15:24:55;4.93;;;4.05;;
9508;SDS011;4792;50.088;8.122;2023-08-24T15:27:22;7.90;;;3.80;;